createdAt,value
2022-08-04T00:00:15.774Z,24.90
2022-08-04T00:03:03.139Z,24.90
2022-08-04T00:06:08.643Z,24.90
2022-08-04T00:08:46.897Z,24.90
2022-08-04T00:11:27.049Z,25.00
2022-08-04T00:14:03.184Z,25.00
2022-08-04T00:16:38.485Z,25.00
2022-08-04T00:19:32.766Z,24.90
2022-08-04T00:22:04.995Z,24.90
2022-08-04T00:24:36.139Z,24.80
2022-08-04T00:27:04.802Z,24.80
2022-08-04T00:29:33.225Z,24.70
2022-08-04T00:32:03.592Z,24.70
2022-08-04T00:34:34.550Z,24.70
2022-08-04T00:37:02.969Z,24.70
2022-08-04T00:39:32.325Z,24.60
2022-08-04T00:42:32.213Z,24.60
2022-08-04T00:45:15.748Z,24.50
2022-08-04T00:47:56.269Z,24.50
2022-08-04T00:50:30.691Z,24.50
2022-08-04T00:53:07.898Z,24.50
2022-08-04T00:55:57.343Z,24.50
2022-08-04T00:58:47.593Z,24.50
2022-08-04T01:01:54.372Z,24.50
2022-08-04T01:04:50.047Z,24.50
2022-08-04T01:08:02.945Z,24.40
2022-08-04T01:10:59.336Z,24.40
2022-08-04T01:13:39.576Z,24.40
2022-08-04T01:16:09.448Z,24.40
2022-08-04T01:19:22.656Z,24.40
2022-08-04T01:22:32.165Z,24.30
2022-08-04T01:25:44.727Z,24.30
2022-08-04T01:28:44.761Z,24.30
2022-08-04T01:31:30.956Z,24.20
2022-08-04T01:34:04.803Z,24.10
2022-08-04T01:36:35.165Z,24.10
2022-08-04T01:39:04.685Z,24.10
2022-08-04T01:41:33.333Z,24.10
2022-08-04T01:44:03.477Z,24.10
2022-08-04T01:46:35.914Z,24.10
2022-08-04T01:49:04.482Z,24.10
2022-08-04T01:51:34.307Z,24.10
2022-08-04T01:54:02.973Z,24.10
2022-08-04T01:56:32.180Z,24.00
2022-08-04T01:59:03.525Z,24.00
2022-08-04T02:01:37.717Z,24.00
2022-08-04T02:04:19.369Z,24.00
2022-08-04T02:07:03.061Z,24.00
2022-08-04T02:10:00.439Z,24.00
2022-08-04T02:12:43.694Z,24.00
2022-08-04T02:15:20.922Z,24.00
2022-08-04T02:18:26.029Z,24.00
2022-08-04T02:21:01.258Z,24.00
2022-08-04T02:23:31.753Z,23.80
2022-08-04T02:26:04.294Z,23.90
2022-08-04T02:28:49.297Z,23.90
2022-08-04T02:31:40.190Z,23.90
2022-08-04T02:34:23.537Z,23.90
2022-08-04T02:36:53.028Z,24.00
2022-08-04T02:39:23.564Z,24.00
2022-08-04T02:41:53.632Z,24.00
2022-08-04T02:44:24.066Z,24.00
2022-08-04T02:46:54.503Z,24.00
2022-08-04T02:49:23.728Z,24.10
2022-08-04T02:51:53.923Z,24.10
2022-08-04T02:54:33.674Z,24.10
2022-08-04T02:57:08.301Z,24.20
2022-08-04T03:00:07.371Z,24.20
2022-08-04T03:03:14.185Z,24.20
2022-08-04T03:06:06.468Z,24.20
2022-08-04T03:09:03.105Z,24.20
2022-08-04T03:12:13.822Z,24.30
2022-08-04T03:15:39.870Z,24.20
2022-08-04T03:18:24.491Z,24.20
2022-08-04T03:21:20.800Z,24.30
2022-08-04T03:24:20.653Z,24.30
2022-08-04T03:27:10.779Z,24.30
2022-08-04T03:29:57.422Z,24.20
2022-08-04T03:32:38.071Z,24.30
2022-08-04T03:35:13.608Z,24.30
2022-08-04T03:38:28.563Z,24.30
2022-08-04T03:41:51.809Z,24.40
2022-08-04T03:44:31.087Z,24.40
2022-08-04T03:47:19.570Z,24.40
2022-08-04T03:50:25.258Z,24.40
2022-08-04T03:53:18.187Z,24.40
2022-08-04T03:55:57.987Z,24.40
2022-08-04T03:58:54.063Z,24.40
2022-08-04T04:02:02.832Z,24.40
2022-08-04T04:04:50.278Z,24.40
2022-08-04T04:07:37.375Z,24.30
2022-08-04T04:10:56.362Z,24.30
2022-08-04T04:13:55.297Z,24.30
2022-08-04T04:16:45.962Z,24.20
2022-08-04T04:19:34.380Z,24.20
2022-08-04T04:22:30.994Z,24.30
2022-08-04T04:25:35.997Z,24.30
2022-08-04T04:28:45.434Z,24.30
2022-08-04T04:31:37.600Z,24.30
2022-08-04T04:34:47.027Z,24.30
2022-08-04T04:37:24.019Z,24.30
2022-08-04T04:40:10.357Z,24.30
2022-08-04T04:43:08.195Z,24.30
2022-08-04T04:46:05.806Z,24.20
2022-08-04T04:48:47.742Z,24.30
2022-08-04T04:51:29.612Z,24.30
2022-08-04T04:54:31.677Z,24.30
2022-08-04T04:57:15.387Z,24.30
2022-08-04T05:00:24.602Z,24.30
2022-08-04T05:03:16.975Z,24.30
2022-08-04T05:05:57.317Z,24.30
2022-08-04T05:08:47.437Z,24.30
2022-08-04T05:11:44.558Z,24.40
2022-08-04T05:14:41.460Z,24.30
2022-08-04T05:17:16.261Z,24.30
2022-08-04T05:20:01.224Z,24.30
2022-08-04T05:22:41.489Z,24.30
2022-08-04T05:25:14.865Z,24.30
2022-08-04T05:27:52.145Z,24.40
2022-08-04T05:30:21.609Z,24.30
2022-08-04T05:32:57.383Z,24.20
2022-08-04T05:36:17.000Z,24.30
2022-08-04T05:38:41.350Z,24.20
2022-08-04T05:41:10.948Z,24.20
2022-08-04T05:43:40.632Z,24.20
2022-08-04T05:46:11.692Z,24.20
2022-08-04T05:48:41.284Z,24.20
2022-08-04T05:51:11.637Z,24.00
2022-08-04T05:53:41.420Z,24.00
2022-08-04T05:56:10.922Z,24.00
2022-08-04T05:58:40.109Z,24.00
2022-08-04T06:01:11.281Z,24.00
2022-08-04T06:03:40.837Z,24.00
2022-08-04T06:06:11.084Z,23.90
2022-08-04T06:08:39.646Z,23.90
2022-08-04T06:11:12.452Z,23.90
2022-08-04T06:13:57.314Z,23.90
2022-08-04T06:16:30.830Z,23.90
2022-08-04T06:20:00.625Z,23.90
2022-08-04T06:21:54.585Z,23.90
2022-08-04T06:24:27.163Z,23.90
2022-08-04T06:26:56.910Z,23.90
2022-08-04T06:29:27.217Z,23.90
2022-08-04T06:32:31.689Z,23.90
2022-08-04T06:34:45.617Z,23.80
2022-08-04T06:37:43.090Z,23.80
2022-08-04T06:40:29.783Z,23.80
2022-08-04T06:42:54.295Z,23.90
2022-08-04T06:45:24.792Z,23.90
2022-08-04T06:47:55.164Z,23.90
2022-08-04T06:51:25.896Z,23.90
2022-08-04T06:53:13.283Z,23.90
2022-08-04T06:55:47.375Z,23.90
2022-08-04T06:58:17.812Z,23.90
2022-08-04T07:00:47.860Z,23.90
2022-08-04T07:03:19.517Z,23.80
2022-08-04T07:05:48.997Z,23.80
2022-08-04T07:08:17.808Z,23.80
2022-08-04T07:10:46.687Z,23.80
2022-08-04T07:13:15.103Z,23.80
2022-08-04T07:15:46.255Z,23.80
2022-08-04T07:18:14.796Z,23.80
2022-08-04T07:20:47.176Z,23.80
2022-08-04T07:23:16.774Z,23.80
2022-08-04T07:25:59.627Z,23.80
2022-08-04T07:28:39.969Z,23.80
2022-08-04T07:31:31.959Z,23.80
2022-08-04T07:34:17.769Z,23.80
2022-08-04T07:36:55.571Z,23.80
2022-08-04T07:39:28.488Z,23.80
2022-08-04T07:42:02.671Z,23.70
2022-08-04T07:44:32.895Z,23.80
2022-08-04T07:47:03.676Z,23.80
2022-08-04T07:49:55.999Z,23.80
2022-08-04T07:52:22.416Z,23.80
2022-08-04T07:54:51.051Z,23.80
2022-08-04T07:57:39.820Z,23.80
2022-08-04T08:00:09.199Z,23.80
2022-08-04T08:02:40.498Z,23.80
2022-08-04T08:05:11.496Z,23.80
2022-08-04T08:07:50.899Z,23.80
2022-08-04T08:10:24.159Z,23.80
2022-08-04T08:12:53.854Z,23.80
2022-08-04T08:15:22.900Z,23.80
2022-08-04T08:17:59.934Z,23.80
2022-08-04T08:20:33.297Z,23.80
2022-08-04T08:23:03.488Z,23.80
2022-08-04T08:25:33.781Z,23.90
2022-08-04T08:28:04.856Z,23.90
2022-08-04T08:30:34.889Z,23.90
2022-08-04T08:33:10.282Z,23.80
2022-08-04T08:36:04.745Z,23.80
2022-08-04T08:38:59.632Z,23.80
2022-08-04T08:41:30.803Z,23.90
2022-08-04T08:44:37.959Z,23.90
2022-08-04T08:47:27.883Z,23.90
2022-08-04T08:50:33.472Z,23.90
2022-08-04T08:53:17.549Z,24.00
2022-08-04T08:56:31.146Z,24.00
2022-08-04T08:59:02.766Z,24.00
2022-08-04T09:01:54.230Z,24.00
2022-08-04T09:04:37.708Z,24.00
2022-08-04T09:07:14.455Z,24.00
2022-08-04T09:09:54.453Z,24.00
2022-08-04T09:12:46.113Z,24.00
2022-08-04T09:15:23.297Z,24.00
2022-08-04T09:18:08.139Z,24.00
2022-08-04T09:20:46.068Z,24.00
2022-08-04T09:23:36.691Z,24.00
2022-08-04T09:26:20.580Z,24.00
2022-08-04T09:29:00.285Z,24.00
2022-08-04T09:31:49.019Z,24.00
2022-08-04T09:35:02.113Z,24.10
2022-08-04T09:37:54.115Z,24.10
2022-08-04T09:40:52.651Z,24.00
2022-08-04T09:43:59.299Z,24.00
2022-08-04T09:46:35.549Z,24.00
2022-08-04T09:49:13.249Z,24.00
2022-08-04T09:51:59.584Z,24.10
2022-08-04T09:54:52.269Z,24.10
2022-08-04T09:57:33.021Z,24.10
2022-08-04T10:00:12.512Z,24.10
2022-08-04T10:02:56.450Z,24.10
2022-08-04T10:05:33.737Z,24.10
2022-08-04T10:08:17.259Z,24.10
2022-08-04T10:10:55.667Z,24.10
2022-08-04T10:14:21.354Z,24.10
2022-08-04T10:16:57.368Z,24.10
2022-08-04T10:19:30.114Z,24.10
2022-08-04T10:22:27.673Z,24.10
2022-08-04T10:25:37.383Z,24.10
2022-08-04T10:28:20.217Z,24.10
2022-08-04T10:30:58.466Z,24.10
2022-08-04T10:33:31.902Z,24.20
2022-08-04T10:36:09.819Z,24.20
2022-08-04T10:39:42.204Z,24.20
2022-08-04T10:42:13.021Z,24.20
2022-08-04T10:45:06.720Z,24.30
2022-08-04T10:47:53.406Z,24.20
2022-08-04T10:50:25.530Z,24.20
2022-08-04T10:53:10.133Z,24.30
2022-08-04T10:56:07.612Z,24.30
2022-08-04T10:58:47.396Z,24.30
2022-08-04T11:05:57.752Z,24.10
2022-08-04T11:13:07.259Z,24.10
2022-08-04T11:15:56.034Z,24.10
2022-08-04T11:18:38.987Z,24.10
2022-08-04T11:21:29.504Z,24.20
2022-08-04T11:56:06.812Z,24.30
2022-08-04T11:58:30.905Z,24.40
2022-08-04T12:01:23.076Z,24.50
2022-08-04T12:03:59.718Z,24.50
2022-08-04T12:06:56.994Z,24.60
2022-08-04T12:09:55.360Z,24.70
2022-08-04T12:12:34.491Z,24.70
2022-08-04T12:15:05.925Z,24.80
2022-08-04T12:17:53.342Z,24.90
2022-08-04T12:20:31.954Z,24.80
2022-08-04T12:23:23.662Z,24.80
2022-08-04T12:25:56.935Z,24.80
2022-08-04T12:29:08.408Z,24.70
2022-08-04T12:31:47.818Z,24.70
2022-08-04T12:34:29.857Z,24.70
2022-08-04T12:37:27.492Z,24.70
2022-08-04T12:40:29.118Z,24.70
2022-08-04T12:43:21.633Z,24.70
2022-08-04T12:45:58.141Z,24.70
2022-08-04T12:48:28.181Z,24.80
2022-08-04T12:50:59.342Z,24.80
2022-08-04T12:53:35.343Z,24.80
2022-08-04T12:56:27.415Z,24.90
2022-08-04T12:59:04.668Z,24.90
2022-08-04T13:02:10.566Z,25.00
2022-08-04T13:04:29.524Z,24.90
2022-08-04T13:07:04.436Z,25.00
2022-08-04T13:09:35.939Z,25.00
2022-08-04T13:12:12.937Z,25.10
2022-08-04T13:14:43.976Z,25.10
2022-08-04T13:17:13.818Z,25.10
2022-08-04T13:19:53.236Z,25.00
2022-08-04T13:22:30.983Z,25.00
2022-08-04T13:25:18.248Z,25.00
2022-08-04T13:27:59.657Z,25.10
2022-08-04T13:30:31.498Z,25.10
2022-08-04T13:33:03.242Z,25.00
2022-08-04T13:35:55.912Z,25.00
2022-08-04T13:38:24.633Z,25.00
2022-08-04T13:40:53.906Z,25.10
2022-08-04T13:44:18.852Z,25.10
2022-08-04T13:46:51.020Z,25.20
2022-08-04T13:49:37.987Z,25.20
2022-08-04T13:52:11.364Z,25.20
2022-08-04T13:54:48.323Z,25.10
2022-08-04T13:57:30.111Z,25.00
2022-08-04T14:00:08.348Z,25.00
2022-08-04T14:02:53.112Z,25.00
2022-08-04T14:05:28.050Z,25.10
2022-08-04T14:08:16.066Z,25.10
2022-08-04T14:10:53.690Z,25.20
2022-08-04T14:13:41.567Z,25.10
2022-08-04T14:16:19.476Z,25.10
2022-08-04T14:18:49.005Z,25.20
2022-08-04T14:21:18.422Z,25.00
2022-08-04T14:23:56.299Z,24.90
2022-08-04T14:26:32.997Z,24.90
2022-08-04T14:29:28.393Z,24.80
2022-08-04T14:32:10.603Z,25.00
2022-08-04T14:34:45.955Z,24.90
2022-08-04T14:37:19.240Z,24.90
2022-08-04T14:40:17.719Z,24.80
2022-08-04T14:42:54.430Z,24.80
2022-08-04T14:45:54.235Z,24.90
2022-08-04T14:48:23.727Z,24.90
2022-08-04T14:50:52.932Z,25.00
2022-08-04T14:53:23.864Z,25.00
2022-08-04T14:55:56.384Z,25.10
2022-08-04T14:58:34.926Z,25.10
2022-08-04T15:01:11.480Z,25.00
2022-08-04T15:03:50.058Z,25.00
2022-08-04T15:06:31.669Z,25.00
2022-08-04T15:09:07.027Z,25.10
2022-08-04T15:11:43.301Z,25.10
2022-08-04T15:14:36.240Z,25.10
2022-08-04T15:17:00.352Z,25.20
2022-08-04T15:19:29.086Z,25.20
2022-08-04T15:21:57.471Z,25.20
2022-08-04T15:24:26.306Z,25.20
2022-08-04T15:26:58.317Z,25.10
2022-08-04T15:30:00.237Z,25.00
2022-08-04T15:32:32.594Z,25.10
2022-08-04T15:35:05.623Z,25.10
2022-08-04T15:38:01.203Z,25.10
2022-08-04T15:40:44.573Z,25.10
2022-08-04T15:43:21.654Z,25.10
2022-08-04T15:46:32.940Z,25.00
2022-08-04T15:48:50.902Z,25.00
2022-08-04T15:51:30.436Z,25.00
2022-08-04T15:54:02.322Z,25.00
2022-08-04T15:56:33.311Z,24.90
2022-08-04T15:59:01.938Z,24.90
2022-08-04T16:01:30.524Z,24.80
2022-08-04T16:04:01.496Z,24.80
2022-08-04T16:06:30.636Z,24.80
2022-08-04T16:09:00.549Z,24.80
2022-08-04T16:11:32.281Z,24.80
2022-08-04T16:14:00.920Z,24.90
2022-08-04T16:16:39.627Z,24.90
2022-08-04T16:19:12.371Z,25.00
2022-08-04T16:21:58.543Z,25.00
2022-08-04T16:24:52.726Z,25.00
2022-08-04T16:27:35.669Z,25.00
2022-08-04T16:30:10.728Z,25.00
2022-08-04T16:32:44.632Z,25.10
2022-08-04T16:36:37.585Z,25.00
2022-08-04T16:39:05.977Z,25.00
2022-08-04T16:41:44.539Z,25.00
2022-08-04T16:44:52.319Z,25.00
2022-08-04T16:47:48.712Z,25.00
2022-08-04T16:50:17.741Z,25.10
2022-08-04T16:52:51.266Z,25.10
2022-08-04T16:55:27.210Z,25.00
2022-08-04T16:57:58.202Z,25.00
2022-08-04T17:00:35.795Z,25.10
2022-08-04T17:03:09.797Z,25.00
2022-08-04T17:05:42.929Z,25.00
2022-08-04T17:10:59.933Z,25.10
2022-08-04T17:14:02.089Z,25.10
2022-08-04T17:16:19.595Z,25.10
2022-08-04T17:18:51.342Z,25.10
2022-08-04T17:21:26.182Z,25.10
2022-08-04T17:24:13.077Z,25.10
2022-08-04T17:26:54.045Z,25.10
2022-08-04T17:29:43.931Z,25.00
2022-08-04T17:32:17.638Z,25.00
2022-08-04T17:34:51.291Z,24.90
2022-08-04T17:37:41.218Z,24.90
2022-08-04T17:40:13.590Z,24.90
2022-08-04T17:42:42.439Z,24.90
2022-08-04T17:48:24.889Z,24.70
2022-08-04T17:50:53.639Z,24.80
2022-08-04T17:54:01.776Z,24.70
2022-08-04T17:56:52.006Z,24.70
2022-08-04T17:59:52.379Z,24.80
2022-08-04T18:02:34.763Z,24.70
2022-08-04T18:05:11.524Z,24.70
2022-08-04T18:08:39.191Z,24.70
2022-08-04T18:10:54.585Z,24.70
2022-08-04T18:13:28.944Z,24.70
2022-08-04T18:16:12.543Z,24.70
2022-08-04T18:19:09.174Z,24.60
2022-08-04T18:21:46.025Z,24.50
2022-08-04T18:24:35.503Z,24.50
2022-08-04T18:27:16.277Z,24.50
2022-08-04T18:29:56.422Z,24.50
2022-08-04T18:32:34.183Z,24.50
2022-08-04T18:35:05.005Z,24.40
2022-08-04T18:38:06.355Z,24.40
2022-08-04T18:40:36.774Z,24.40
2022-08-04T18:43:16.887Z,24.40
2022-08-04T18:45:57.351Z,24.50
2022-08-04T18:48:36.260Z,24.40
2022-08-04T18:51:23.102Z,24.40
2022-08-04T18:53:55.542Z,24.40
2022-08-04T18:56:32.699Z,24.40
2022-08-04T18:59:03.632Z,24.40
2022-08-04T19:02:17.278Z,24.40
2022-08-04T19:04:33.165Z,24.40
2022-08-04T19:07:24.624Z,24.40
2022-08-04T19:09:59.875Z,24.40
2022-08-04T19:12:29.083Z,24.40
2022-08-04T19:15:08.660Z,24.40
2022-08-04T19:17:57.110Z,24.40
2022-08-04T19:20:30.774Z,24.40
2022-08-04T19:24:10.352Z,24.40
2022-08-04T19:26:01.461Z,24.30
2022-08-04T19:28:35.513Z,24.20
2022-08-04T19:31:09.422Z,24.20
2022-08-04T19:33:59.642Z,24.20
2022-08-04T19:36:31.173Z,24.10
2022-08-04T19:39:02.086Z,24.10
2022-08-04T19:41:31.215Z,24.20
2022-08-04T19:43:59.481Z,24.10
2022-08-04T19:46:27.750Z,24.10
2022-08-04T19:48:59.424Z,24.10
2022-08-04T19:51:30.084Z,24.10
2022-08-04T19:54:02.905Z,24.10
2022-08-04T19:56:39.992Z,24.10
2022-08-04T19:59:12.981Z,24.10
2022-08-04T20:01:45.284Z,24.10
2022-08-04T20:04:15.382Z,24.00
2022-08-04T20:06:44.093Z,24.00
2022-08-04T20:09:24.637Z,24.00
2022-08-04T20:11:58.818Z,24.00
2022-08-04T20:14:31.636Z,24.00
2022-08-04T20:17:10.310Z,24.00
2022-08-04T20:19:40.005Z,24.00
2022-08-04T20:22:50.656Z,24.00
2022-08-04T20:25:18.316Z,24.00
2022-08-04T20:27:59.750Z,24.00
2022-08-04T20:30:30.995Z,24.00
2022-08-04T20:33:00.052Z,24.00
2022-08-04T20:35:29.123Z,24.00
2022-08-04T20:38:00.719Z,24.00
2022-08-04T20:40:30.582Z,24.00
2022-08-04T20:43:00.158Z,24.00
2022-08-04T20:45:55.794Z,24.00
2022-08-04T20:48:17.013Z,24.00
2022-08-04T20:50:46.514Z,24.00
2022-08-04T20:53:16.322Z,24.00
2022-08-04T20:58:34.860Z,24.00
2022-08-04T21:01:03.461Z,24.00
2022-08-04T21:03:38.421Z,24.00
2022-08-04T21:06:18.536Z,24.10
2022-08-04T21:08:57.058Z,24.10
2022-08-04T21:11:32.454Z,24.10
2022-08-04T21:14:02.094Z,24.10
2022-08-04T21:16:54.117Z,24.10
2022-08-04T21:19:24.557Z,24.20
2022-08-04T21:21:55.416Z,24.20
2022-08-04T21:24:26.447Z,24.20
2022-08-04T21:26:57.922Z,24.20
2022-08-04T21:29:34.794Z,24.10
2022-08-04T21:32:08.009Z,24.10
2022-08-04T21:34:38.986Z,24.10
2022-08-04T21:37:11.908Z,24.10
2022-08-04T21:39:50.015Z,24.10
2022-08-04T21:42:28.411Z,24.10
2022-08-04T21:45:08.757Z,24.00
2022-08-04T21:47:46.198Z,24.00
2022-08-04T21:50:19.947Z,24.00
2022-08-04T21:52:50.005Z,24.00
2022-08-04T21:55:19.354Z,24.00
2022-08-04T21:57:49.310Z,24.00
2022-08-04T22:00:19.708Z,24.00
2022-08-04T22:02:52.956Z,24.00
2022-08-04T22:05:22.784Z,24.00
2022-08-04T22:07:52.496Z,24.00
2022-08-04T22:10:32.207Z,24.00
2022-08-04T22:13:06.986Z,24.00
2022-08-04T22:21:13.397Z,24.00
2022-08-04T22:23:45.062Z,23.90
2022-08-04T22:26:20.209Z,24.00
2022-08-04T22:28:56.658Z,23.90
2022-08-04T22:31:25.782Z,24.00
2022-08-04T22:33:56.155Z,23.90
2022-08-04T22:36:25.130Z,23.90
2022-08-04T22:39:04.550Z,23.90
2022-08-04T22:41:48.496Z,23.90
2022-08-04T22:44:24.006Z,23.90
2022-08-04T22:46:57.999Z,23.90
2022-08-04T22:49:31.672Z,23.90
2022-08-04T22:52:02.897Z,23.90
2022-08-04T22:54:38.457Z,23.90
2022-08-04T22:57:09.612Z,23.90
2022-08-04T22:59:42.888Z,23.90
2022-08-04T23:02:11.678Z,23.90
2022-08-04T23:04:43.321Z,23.90
2022-08-04T23:07:12.757Z,23.90
2022-08-04T23:09:51.129Z,23.90
2022-08-04T23:12:25.973Z,23.90
2022-08-04T23:14:56.489Z,24.00
2022-08-04T23:17:27.250Z,23.90
2022-08-04T23:19:59.190Z,23.90
2022-08-04T23:22:37.419Z,23.90
2022-08-04T23:25:16.983Z,23.90
2022-08-04T23:27:51.578Z,23.90
2022-08-04T23:30:29.458Z,23.90
2022-08-04T23:32:59.084Z,23.90
2022-08-04T23:35:27.708Z,23.90
2022-08-04T23:37:58.065Z,23.90
2022-08-04T23:40:33.218Z,24.00
2022-08-04T23:43:17.522Z,24.00
2022-08-04T23:46:07.212Z,23.90
2022-08-04T23:48:39.125Z,23.90
2022-08-04T23:51:13.645Z,23.80
2022-08-04T23:54:02.116Z,23.80
2022-08-04T23:56:34.381Z,23.80
2022-08-04T23:59:04.636Z,23.80
